Tiempo atmosférico en la estación meteorológica de Barbate, Cádiz (4 m.)

Fecha
DESCASC
Temp. máxima en grados centígrados (hora)
DESCASC
Temp. mínima en grados centígrados (hora)
DESCASC
Temp. media en grados centígrados
DESCASC
Racha de viento máxima en m/sg (hora)
DESCASC
Velocidad máxima media en intervalos de 10 minutos(hora)
DESCASC
Precipitaciones diarias en mm
DESCASC
Precipitaciones de 00:00 a 06:00 en mm
DESCASC
Precipitaciones de 06:00 a 12:00 en mm
DESCASC
Precipitaciones de 12:00 a 18:00 en mm
DESCASC
Precipitaciones de 18:00 a 24:00 en mm
DESCASC
24-09-2017 29.2 (13:50) 21.3 (04:30) 25.3 10.28 (16:20) 8.06 (16:20) 0 0 0 0 0
23-09-2017 28.7 (15:20) 21.9 (08:20) 25.3 15 (13:50) 9.72 (11:40) 0 0 0 0 0
22-09-2017 28.9 (15:10) 16.8 (05:10) 22.8 12.22 (16:30) 6.94 (16:50) 0 0 0 0 0
21-09-2017 25.7 (19:20) 16.1 (00:00) 20.9 10.28 (13:50) 8.61 (14:30) 0 0 0 0 0
20-09-2017 29.1 (17:40) 15.5 (00:00) 22.3 10 (14:50) 7.78 (14:50) 0 0 0 0 0
19-09-2017 24.7 (15:40) 14.5 (00:00) 19.6 9.17 (17:50) 7.22 (17:30) 0 0 0 0 0
18-09-2017 24.2 (17:10) 12.5 (00:00) 18.4 11.39 (13:50) 8.06 (14:00) 0 0 0 0 0
17-09-2017 24.9 (17:00) 12.7 (00:00) 18.8 9.72 (17:50) 6.67 (18:30) 0 0 0 0 0
16-09-2017 24.1 (15:10) 13.8 (00:00) 19 9.17 (01:50) 7.5 (00:40) 0 0 0 0 0
15-09-2017 24.6 (16:10) 18.5 (00:00) 21.6 10.56 (14:00) 8.06 (15:20) 0 0 0 0 0
14-09-2017 27.3 (17:20) 17.3 (00:00) 22.3 9.17 (16:00) 7.5 (16:00) 0 0 0 0 0
13-09-2017 31.5 (15:20) 22.5 (00:00) 27 16.67 (08:40) 11.11 (07:00) 0 0 0 0 0
12-09-2017 35.6 (18:30) 16.7 (00:00) 26.1 8.06 (18:40) 5.56 (18:40) 0 0 0 0 0
11-09-2017 28.5 (18:50) 13.9 (00:00) 21.2 7.5 (17:50) 5.28 (17:40) 0 0 0 0 0
10-09-2017 24.5 (18:40) 16.3 (00:00) 20.4 11.11 (17:50) 9.17 (16:30) 0 0 0 0 0
09-09-2017 24.5 (17:30) 19.8 (00:00) 22.1 10.83 (21:20) 8.33 (14:10) 0 0 0 0 0
08-09-2017 29.5 (18:20) 21.7 (00:00) 25.6 6.11 (13:10) 4.72 (13:10) 0 0 0 0 0
07-09-2017 33.5 (17:10) 23.8 (00:00) 28.6 11.94 (01:10) 6.67 (19:20) 0 0 0 0 0
06-09-2017 34.9 (16:20) 22.8 (00:00) 28.9 10 (20:20) 7.22 (09:50) 0 0 0 0 0
05-09-2017 31.8 (16:30) 21.3 (00:00) 26.5 11.39 (16:00) 8.33 (22:40) 0 0 0 0 0
04-09-2017 26.8 (16:30) 21.6 (00:00) 24.2 9.17 (11:30) 7.78 (11:30) 0 0 0 0 0
03-09-2017 30.8 (12:30) 23.5 (00:00) 27.1 11.67 (06:10) 8.61 (14:50) 0 0 0 0 0
02-09-2017 30.6 (16:00) 24.7 (00:00) 27.7 17.5 (15:10) 11.67 (15:40) 0 0 0 0 0
01-09-2017 31.1 (15:50) 23.5 (00:00) 27.3 15 (17:00) 8.33 (16:30) 0 0 0 0 0
31-08-2017 32.8 (16:30) 18.2 (00:00) 25.5 10 (17:10) 6.67 (18:20) 0 0 0 0 0
30-08-2017 28.6 (18:30) 18.7 (00:00) 23.7 7.78 (21:00) 5.83 (15:10) 0 0 0 0 0
29-08-2017 26.2 (18:30) 19 (00:00) 22.6 10.28 (13:50) 8.06 (11:50) 20.6 0 20.2 0.4 0
28-08-2017 28 (17:00) 20 (00:00) 24 7.78 (13:50) 6.67 (19:40) 0 0 0 0 0
27-08-2017 31 (13:50) 23.1 (00:00) 27.1 15.28 (00:20) 8.89 (00:10) 1 0 1 0 0
26-08-2017 36.7 (15:40) 23.8 (00:00) 30.3 16.39 (23:59) 9.17 (23:59) 0 0 0 0 0

Gráficas

Temp. máximas Temp. mínimas Temp. medias Precipitaciones Rachas de viento máximas Velocidades máximas media en intervalos de 10 minutos

Datos horarios

Fecha y hora oficial Temperatura (ºC) Velocidad del viento (km/h) Dirección del viento Racha (km/h) Dirección de racha Precipitación (mm) Presión (hPa) Tendencia (hPa) Humedad (%)
2017-09-24 23:00:00 22.4 8 Nordeste 20 Este 0 -- -- 80
2017-09-24 22:00:00 22.4 10 Nordeste 16 Nordeste 0 -- -- 76
2017-09-24 21:00:00 23.3 10 Nordeste 21 Este 0 -- -- 71
2017-09-24 20:00:00 25.1 7 Este 29 Sur 0 -- -- 68
2017-09-24 19:00:00 24.8 21 Sudeste 30 Sur 0 -- -- 79
2017-09-24 18:00:00 25.5 23 Sur 32 Sur 0 -- -- 76
2017-09-24 17:00:00 26.4 22 Sur 37 Sur 0 -- -- 72
2017-09-24 16:00:00 26.2 27 Sur 36 Sur 0 -- -- 73
2017-09-24 15:00:00 26.8 24 Sur 36 Sur 0 -- -- 71
2017-09-24 14:00:00 28.5 17 Sur 28 Este 0 -- -- 64
2017-09-24 13:00:00 28.3 14 Este 28 Este 0 -- -- 60
2017-09-24 12:00:00 27 17 Este 30 Este 0 -- -- 63
2017-09-24 11:00:00 25.8 13 Sudeste 31 Sudeste 0 -- -- 70
2017-09-24 10:00:00 23.9 14 Sudeste 24 Sudeste 0 -- -- 76
2017-09-24 09:00:00 21.9 14 Este 28 Este 0 -- -- 84
2017-09-24 08:00:00 21.6 9 Nordeste 26 Nordeste 0 -- -- 83
2017-09-24 07:00:00 21.5 15 Norte 27 Norte 0 -- -- 83
2017-09-24 06:00:00 21.4 14 Norte 29 Norte 0 -- -- 85
2017-09-24 05:00:00 21.4 14 Norte 25 Nordeste 0 -- -- 86
2017-09-24 04:00:00 21.6 14 Nordeste 26 Nordeste 0 -- -- 86
2017-09-24 03:00:00 21.9 12 Nordeste 22 Nordeste 0 -- -- 84
2017-09-24 02:00:00 22.3 13 Este 24 Nordeste 0 -- -- 83
2017-09-24 01:00:00 22.3 15 Este 36 Este 0 -- -- 84
2017-09-24 00:00:00 22.4 22 Nordeste 35 Nordeste 0 -- -- 83
2017-09-23 23:00:00 22.7 19 Nordeste 39 Este 0 -- -- 82
2017-09-23 22:00:00 23 17 Nordeste 31 Este 0 -- -- 81
2017-09-23 21:00:00 23.8 17 Este 38 Este 0 -- -- 76
2017-09-23 20:00:00 25.5 13 Este 37 Este 0 -- -- 69
2017-09-23 19:00:00 27.1 24 Este 38 Este 0 -- -- 64
2017-09-23 18:00:00 27.8 28 Este 44 Este 0 -- -- 61
2017-09-23 17:00:00 28.2 31 Este 46 Este 0 -- -- 60
2017-09-23 16:00:00 28.6 26 Sudeste 49 Este 0 -- -- 58
2017-09-23 15:00:00 28.2 31 Sudeste 49 Este 0 -- -- 60
2017-09-23 14:00:00 27.6 33 Este 54 Este 0 -- -- 62
2017-09-23 13:00:00 27.1 31 Sudeste 52 Sudeste 0 -- -- 65
2017-09-23 12:00:00 26.2 31 Sudeste 51 Sudeste 0 -- -- 69
2017-09-23 11:00:00 25.2 27 Este 46 Sudeste 0 -- -- 72
2017-09-23 10:00:00 23.9 21 Sudeste 42 Sudeste 0 -- -- 76
2017-09-23 09:00:00 22.2 21 Sudeste 45 Este 0 -- -- 82
2017-09-23 08:00:00 22 23 Sudeste 46 Sudeste 0 -- -- 84
2017-09-23 07:00:00 22.1 22 Sudeste 40 Sudeste 0 -- -- 84
2017-09-23 06:00:00 22.4 27 Sudeste 46 Este 0 -- -- 81
2017-09-23 05:00:00 22.5 24 Este 49 Este 0 -- -- 80
2017-09-23 04:00:00 22.5 21 Este 42 Sudeste 0 -- -- 79
2017-09-23 03:00:00 22.3 10 Nordeste 36 Este 0 -- -- 81
2017-09-23 02:00:00 22.6 23 Este 42 Este 0 -- -- 80
2017-09-23 01:00:00 22.5 14 Nordeste 34 Este 0 -- -- 80
2017-09-23 00:00:00 22.6 8 Noroeste 20 Este 0 -- -- 78
2017-09-22 23:00:00 22.5 4 Nordeste 31 Este 0 -- -- 77
2017-09-22 22:00:00 22.9 12 Este 31 Este 0 -- -- 75
2017-09-22 21:00:00 23.4 17 Este 27 Este 0 -- -- 73
2017-09-22 20:00:00 24.8 15 Este 31 Este 0 -- -- 69
2017-09-22 19:00:00 26.6 21 Este 32 Este 0 -- -- 62
2017-09-22 18:00:00 28 20 Este 39 Este 0 -- -- 56
2017-09-22 17:00:00 28.6 22 Este 44 Este 0 -- -- 53
2017-09-22 16:00:00 28.6 22 Este 36 Este 0 -- -- 53
2017-09-22 15:00:00 28.2 17 Este 35 Este 0 -- -- 56
2017-09-22 14:00:00 26.6 18 Sudeste 37 Sudeste 0 -- -- 68
2017-09-22 13:00:00 25.6 18 Sur 26 Sur 0 -- -- 75
2017-09-22 12:00:00 25.1 12 Sudoeste 17 Sur 0 -- -- 75
2017-09-22 11:00:00 23.8 12 Nordeste 15 Este 0 -- -- 76
2017-09-22 10:00:00 19.8 9 Norte 15 Norte 0 -- -- 93
2017-09-22 09:00:00 17.9 7 Norte 12 Norte 0 -- -- 97
2017-09-22 08:00:00 17.5 6 Norte 15 Norte 0 -- -- 96
2017-09-22 07:00:00 17.6 9 Norte 13 Norte 0 -- -- 95
2017-09-22 06:00:00 17.4 6 Norte 13 Norte 0 -- -- 95
2017-09-22 05:00:00 16.9 5 Norte 10 Norte 0 -- -- 94
2017-09-22 04:00:00 17.6 4 Norte 7 Norte 0 -- -- 92
2017-09-22 03:00:00 17.3 5 Nordeste 13 Nordeste 0 -- -- 92
2017-09-22 02:00:00 18.5 5 Norte 8 Norte 0 -- -- 88
2017-09-22 01:00:00 19.3 6 Norte 12 Nordeste 0 -- -- 83
2017-09-22 00:00:00 20.4 5 Norte 10 Noroeste 0 -- -- 81
2017-09-21 23:00:00 21.2 5 Nordeste 15 Nordeste 0 -- -- 85
2017-09-21 22:00:00 21.8 7 Norte 17 Norte 0 -- -- 83
2017-09-21 21:00:00 22.3 9 Oeste 15 Oeste 0 -- -- 85
2017-09-21 20:00:00 24.3 8 Noroeste 23 Este 0 -- -- 73
2017-09-21 19:00:00 23.9 14 Sudeste 32 Sur 0 -- -- 69
2017-09-21 18:00:00 25 26 Sur 32 Sur 0 -- -- 75
2017-09-21 17:00:00 25.3 26 Sur 34 Sur 0 -- -- 73
2017-09-21 16:00:00 25.6 28 Sur 37 Sur 0 -- -- 71
2017-09-21 15:00:00 25 30 Sur 36 Sur 0 -- -- 73
2017-09-21 14:00:00 24.7 28 Sur 37 Sur 0 -- -- 73
2017-09-21 13:00:00 24.8 21 Sur 30 Sur 0 -- -- 72
2017-09-21 12:00:00 25 14 Sudoeste 16 Sudoeste 0 -- -- 68
2017-09-21 11:00:00 23.2 4 Norte 12 Nordeste 0 -- -- 69
2017-09-21 10:00:00 20 8 Nordeste 16 Nordeste 0 -- -- 81
2017-09-21 09:00:00 16.3 5 Norte 15 Este 0 -- -- 87
2017-09-21 08:00:00 16.9 5 Norte 11 Este 0 -- -- 85
2017-09-21 07:00:00 17.2 5 Norte 9 Norte 0 -- -- 83
2017-09-21 06:00:00 17.7 4 Sur 10 Norte 0 -- -- 83
2017-09-21 05:00:00 18.1 6 Norte 11 Norte 0 -- -- 82
2017-09-21 04:00:00 19.1 8 Norte 15 Norte 0 -- -- 83
2017-09-21 03:00:00 19.4 12 Nordeste 17 Nordeste 0 -- -- 81
2017-09-21 02:00:00 19.8 11 Norte 18 Nordeste 0 -- -- 77
2017-09-21 01:00:00 19.9 10 Nordeste 27 Nordeste 0 -- -- 79
2017-09-21 00:00:00 20.6 19 Nordeste 27 Nordeste 0 -- -- 76
2017-09-20 23:00:00 21.7 6 Noroeste 33 Este 0 -- -- 65
2017-09-20 22:00:00 23.1 20 Este 34 Este 0 -- -- 50
2017-09-20 21:00:00 23.5 13 Este 27 Nordeste 0 -- -- 55
2017-09-20 20:00:00 24.8 19 Este 30 Este 0 -- -- 55
2017-09-20 19:00:00 27.5 21 Este 35 Este 0 -- -- 41
2017-09-20 18:00:00 28.7 20 Este 34 Este 0 -- -- 43
2017-09-20 17:00:00 27 19 Sudeste 31 Sudeste 0 -- -- 49
2017-09-20 16:00:00 24.8 23 Sur 33 Sur 0 -- -- 73
2017-09-20 15:00:00 24.2 27 Sur 36 Sur 0 -- -- 72
2017-09-20 14:00:00 24.9 21 Sur 25 Sur 0 -- -- 71
2017-09-20 13:00:00 24.4 16 Sur 23 Sur 0 -- -- 75
2017-09-20 12:00:00 23.8 17 Sur 20 Sur 0 -- -- 77
2017-09-20 11:00:00 23.2 5 Sudoeste 6 Sudoeste 0 -- -- 68
2017-09-20 10:00:00 19.4 4 Norte 11 Norte 0 -- -- 75
2017-09-20 09:00:00 16 4 Norte 11 Norte 0 -- -- 89
2017-09-20 08:00:00 15.8 6 Nordeste 10 Nordeste 0 -- -- 90
2017-09-20 07:00:00 17 2 Norte 13 Norte 0 -- -- 82
2017-09-20 06:00:00 16.4 4 Norte 11 Norte 0 -- -- 89
2017-09-20 05:00:00 16.2 6 Norte 10 Norte 0 -- -- 91
2017-09-20 04:00:00 17.1 5 Nordeste 8 Norte 0 -- -- 91
2017-09-20 03:00:00 17.6 6 Norte 14 Norte 0 -- -- 89
2017-09-20 02:00:00 17.7 7 Norte 13 Norte 0 -- -- 89
2017-09-20 01:00:00 17.7 8 Norte 12 Norte 0 -- -- 88
2017-09-20 00:00:00 18.4 7 Nordeste 9 Nordeste 0 -- -- 88
2017-09-19 23:00:00 20.2 3 Norte 4 Norte 0 -- -- 82
2017-09-19 22:00:00 20.6 3 Norte 14 Nordeste 0 -- -- 81
2017-09-19 21:00:00 21.4 6 Norte 12 Norte 0 -- -- 77
2017-09-19 20:00:00 23.9 7 Oeste 19 Oeste 0 -- -- 68
2017-09-19 19:00:00 24.2 17 Oeste 28 Oeste 0 -- -- 75
2017-09-19 18:00:00 24.4 23 Oeste 33 Oeste 0 -- -- 76
2017-09-19 17:00:00 24.6 23 Oeste 30 Oeste 0 -- -- 75
2017-09-19 16:00:00 24.7 23 Sudoeste 27 Sudoeste 0 -- -- 75
2017-09-19 15:00:00 24.5 19 Sudoeste 23 Sudoeste 0 -- -- 74
2017-09-19 14:00:00 24.4 16 Sudoeste 20 Sudoeste 0 -- -- 73
2017-09-19 13:00:00 24 11 Sudoeste 13 Sudoeste 0 -- -- 75
2017-09-19 12:00:00 23 9 Sudoeste 12 Sudoeste 0 -- -- 80
2017-09-19 11:00:00 20.5 2 Sur 10 Norte 0 -- -- 97
2017-09-19 10:00:00 16.8 6 Norte 10 Nordeste 0 -- -- 100
2017-09-19 09:00:00 14.9 6 Norte 10 Norte 0 -- -- 99
2017-09-19 08:00:00 14.8 8 Norte 12 Norte 0 -- -- 98
2017-09-19 07:00:00 15.7 5 Norte 9 Nordeste 0 -- -- 98
2017-09-19 06:00:00 16.1 6 Nordeste 9 Nordeste 0 -- -- 97
2017-09-19 05:00:00 16.9 4 Norte 8 Norte 0 -- -- 97
2017-09-19 04:00:00 17.3 4 Norte 8 Norte 0 -- -- 96
2017-09-19 03:00:00 17.9 4 Norte 8 Norte 0 -- -- 95
2017-09-19 02:00:00 18.5 5 Norte 8 Nordeste 0 -- -- 93
2017-09-19 01:00:00 21 8 Sudoeste 15 Sur 0 -- -- 94
2017-09-19 00:00:00 20.8 12 Sur 14 Sur 0 -- -- 92
2017-09-18 23:00:00 21 9 Sudoeste 15 Sudoeste 0 -- -- 89
2017-09-18 22:00:00 21 8 Sudoeste 16 Oeste 0 -- -- 86
2017-09-18 21:00:00 21.1 12 Oeste 28 Oeste 0 -- -- 80
2017-09-18 20:00:00 22.6 19 Oeste 30 Oeste 0 -- -- 76
2017-09-18 19:00:00 24.1 19 Sudoeste 31 Oeste 0 -- -- 71
2017-09-18 18:00:00 23.9 25 Oeste 34 Oeste 0 -- -- 68
2017-09-18 17:00:00 24 18 Oeste 30 Sudoeste 0 -- -- 64
2017-09-18 16:00:00 23.9 22 Oeste 33 Oeste 0 -- -- 68
2017-09-18 15:00:00 22.9 27 Oeste 33 Oeste 0 -- -- 71
2017-09-18 14:00:00 22.9 29 Oeste 41 Oeste 0 -- -- 71
2017-09-18 13:00:00 22.6 27 Oeste 32 Oeste 0 -- -- 71
2017-09-18 12:00:00 22.2 25 Oeste 29 Oeste 0 -- -- 72
2017-09-18 11:00:00 20.8 6 Sudoeste 19 Oeste 0 -- -- 80
2017-09-18 10:00:00 15.6 8 Nordeste 14 Norte 0 -- -- 93
2017-09-18 09:00:00 13.3 6 Norte 10 Norte 0 -- -- 97
2017-09-18 08:00:00 12.6 7 Norte 10 Norte 0 -- -- 96
2017-09-18 07:00:00 13.1 7 Norte 11 Norte 0 -- -- 96
2017-09-18 06:00:00 13.6 8 Nordeste 11 Norte 0 -- -- 95
2017-09-18 05:00:00 13.8 8 Nordeste 11 Nordeste 0 -- -- 94
2017-09-18 04:00:00 14.7 7 Norte 9 Norte 0 -- -- 91
2017-09-18 03:00:00 14.9 6 Nordeste 9 Nordeste 0 -- -- 92
2017-09-18 02:00:00 16 5 Norte 7 Norte 0 -- -- 88
2017-09-18 01:00:00 17 4 Norte 6 Norte 0 -- -- 85
2017-09-18 00:00:00 17.2 3 Nordeste 8 Este 0 -- -- 86
2017-09-17 23:00:00 18.2 4 Este 7 Este 0 -- -- 85
2017-09-17 22:00:00 19.5 0 Calma 12 Oeste 0 -- -- 79
2017-09-17 21:00:00 20.4 7 Oeste 12 Oeste 0 -- -- 78
2017-09-17 20:00:00 23.7 8 Oeste 18 Oeste 0 -- -- 62
2017-09-17 19:00:00 24.3 19 Oeste 28 Oeste 0 -- -- 68
2017-09-17 18:00:00 24.7 23 Oeste 35 Oeste 0 -- -- 67
2017-09-17 17:00:00 24.9 21 Oeste 27 Oeste 0 -- -- 69
2017-09-17 16:00:00 24.4 23 Oeste 27 Sudoeste 0 -- -- 71
2017-09-17 15:00:00 23.9 21 Oeste 25 Oeste 0 -- -- 73
2017-09-17 14:00:00 23.6 18 Sudoeste 24 Sudoeste 0 -- -- 73
2017-09-17 13:00:00 23.2 15 Sudoeste 20 Sudoeste 0 -- -- 75
2017-09-17 12:00:00 22.4 12 Sudoeste 17 Sudoeste 0 -- -- 77
2017-09-17 11:00:00 20.6 14 Sudoeste 18 Sudoeste 0 -- -- 85
2017-09-17 10:00:00 15.8 5 Norte 10 Nordeste 0 -- -- 95
2017-09-17 09:00:00 13.3 8 Nordeste 10 Norte 0 -- -- 98
2017-09-17 08:00:00 12.8 5 Norte 12 Norte 0 -- -- 97
2017-09-17 07:00:00 13.1 7 Norte 11 Nordeste 0 -- -- 95
2017-09-17 06:00:00 13.6 6 Norte 11 Norte 0 -- -- 95
2017-09-17 05:00:00 14 6 Norte 12 Norte 0 -- -- 94
2017-09-17 04:00:00 14.1 8 Norte 11 Norte 0 -- -- 92
2017-09-17 03:00:00 15 6 Norte 9 Norte 0 -- -- 91
2017-09-17 02:00:00 15.1 6 Norte 8 Norte 0 -- -- 89
2017-09-17 01:00:00 15.8 6 Norte 8 Norte 0 -- -- 87
2017-09-17 00:00:00 17.1 4 Norte 7 Nordeste 0 -- -- 85
2017-09-16 23:00:00 17.5 5 Nordeste 8 Noroeste 0 -- -- 81
2017-09-16 22:00:00 19.2 4 Noroeste 13 Noroeste 0 -- -- 75
2017-09-16 21:00:00 19.8 9 Oeste 20 Oeste 0 -- -- 75
2017-09-16 20:00:00 21.9 17 Oeste 23 Sudoeste 0 -- -- 70
2017-09-16 19:00:00 23.2 20 Oeste 26 Oeste 0 -- -- 67
2017-09-16 18:00:00 23.8 19 Oeste 31 Sudoeste 0 -- -- 65
2017-09-16 17:00:00 23.6 22 Oeste 31 Oeste 0 -- -- 64
2017-09-16 16:00:00 23.9 22 Oeste 29 Oeste 0 -- -- 65
2017-09-16 15:00:00 24 19 Sudoeste 25 Oeste 0 -- -- 67
2017-09-16 14:00:00 23.7 16 Oeste 22 Oeste 0 -- -- 66
2017-09-16 13:00:00 23.2 17 Oeste 22 Oeste 0 -- -- 66
2017-09-16 12:00:00 21.9 18 Oeste 23 Oeste 0 -- -- 71
2017-09-16 11:00:00 20.8 16 Oeste 23 Oeste 0 -- -- 75
2017-09-16 10:00:00 19.1 13 Oeste 22 Oeste 0 -- -- 83
2017-09-16 09:00:00 14.1 8 Norte 10 Norte 0 -- -- 86
2017-09-16 08:00:00 14.7 2 Nordeste 9 Noroeste 0 -- -- 83
2017-09-16 07:00:00 15.1 5 Nordeste 8 Norte 0 -- -- 84
2017-09-16 06:00:00 17.2 3 Noroeste 8 Norte 0 -- -- 74
2017-09-16 05:00:00 18.6 5 Norte 8 Sudoeste 0 -- -- 75
2017-09-16 04:00:00 19.6 8 Oeste 14 Oeste 0 -- -- 76
2017-09-16 03:00:00 19.5 6 Sudeste 23 Oeste 0 -- -- 80
2017-09-16 02:00:00 21 18 Oeste 33 Oeste 0 -- -- 86
2017-09-16 01:00:00 21 24 Oeste 32 Oeste 0 -- -- 87
2017-09-16 00:00:00 20.9 26 Oeste 32 Oeste 0 -- -- 83
2017-09-15 23:00:00 20.7 24 Oeste 30 Oeste 0 -- -- 79
2017-09-15 22:00:00 20.7 17 Oeste 25 Oeste 0 -- -- 78
2017-09-15 21:00:00 20.8 20 Oeste 28 Oeste 0 -- -- 74
2017-09-15 20:00:00 22.4 21 Oeste 27 Oeste 0 -- -- 61
2017-09-15 19:00:00 23.7 22 Oeste 31 Oeste 0 -- -- 58
2017-09-15 18:00:00 24.2 23 Oeste 36 Oeste 0 -- -- 55
2017-09-15 17:00:00 24.5 26 Oeste 34 Oeste 0 -- -- 60
2017-09-15 16:00:00 24.4 26 Oeste 38 Oeste 0 -- -- 63
2017-09-15 15:00:00 23.8 28 Oeste 35 Oeste 0 -- -- 61
2017-09-15 14:00:00 22.8 21 Oeste 38 Noroeste 0 -- -- 56
2017-09-15 13:00:00 22.4 21 Oeste 33 Oeste 0 -- -- 64
2017-09-15 12:00:00 22.3 27 Oeste 34 Oeste 0 -- -- 72
2017-09-15 11:00:00 21.5 16 Oeste 27 Noroeste 0 -- -- 72
2017-09-15 10:00:00 20.6 14 Noroeste 22 Noroeste 0 -- -- 75
2017-09-15 09:00:00 19.7 8 Noroeste 18 Noroeste 0 -- -- 83
2017-09-15 08:00:00 19.6 10 Oeste 14 Oeste 0 -- -- 93
2017-09-15 07:00:00 19.3 3 Noroeste 10 Oeste 0 -- -- 94
2017-09-15 06:00:00 19.7 0 Calma 5 Sudoeste 0 -- -- 94
2017-09-15 05:00:00 20.8 5 Sudoeste 10 Sur 0 -- -- 95
2017-09-15 04:00:00 20.6 8 Sur 11 Sur 0 -- -- 94
2017-09-15 03:00:00 20.4 0 Calma 8 Sur 0 -- -- 91
2017-09-15 02:00:00 21 3 Sur -- -- 0 -- -- 89
2017-09-15 01:00:00 21.4 2 Este 5 Este 0 -- -- 86
2017-09-15 00:00:00 22.4 0 Calma 9 Noroeste 0 -- -- 85
2017-09-14 23:00:00 22.5 0 Calma 14 Noroeste 0 -- -- 76
2017-09-14 22:00:00 22.4 4 Noroeste 26 Oeste 0 -- -- 81
2017-09-14 21:00:00 22.5 22 Oeste 30 Oeste 0 -- -- 89
2017-09-14 20:00:00 23.2 21 Oeste 30 Oeste 0 -- -- 84
2017-09-14 19:00:00 24.6 17 Oeste 22 Oeste 0 -- -- 79
2017-09-14 18:00:00 26.5 8 Norte 20 Noroeste 0 -- -- 62
2017-09-14 17:00:00 26.6 14 Oeste 32 Sudoeste 0 -- -- 75
2017-09-14 16:00:00 24.9 27 Oeste 33 Oeste 0 -- -- 83
2017-09-14 15:00:00 25.5 14 Sudoeste 22 Oeste 0 -- -- 77
2017-09-14 14:00:00 24.7 19 Oeste 26 Oeste 0 -- -- 81
2017-09-14 13:00:00 24.4 15 Oeste 18 Oeste 0 -- -- 82
2017-09-14 12:00:00 22.3 10 Sudoeste 23 Sudoeste 0 -- -- 89
2017-09-14 11:00:00 24.2 4 Sur 6 Nordeste 0 -- -- 79
2017-09-14 10:00:00 20.7 5 Norte 9 Norte 0 -- -- 93
2017-09-14 09:00:00 17.7 6 Norte 10 Norte 0 -- -- 96
2017-09-14 08:00:00 17.8 5 Norte 9 Norte 0 -- -- 96
2017-09-14 07:00:00 17.7 9 Nordeste 11 Nordeste 0 -- -- 96
2017-09-14 06:00:00 17.9 6 Norte 9 Norte 0 -- -- 95
2017-09-14 05:00:00 18.4 6 Norte 8 Nordeste 0 -- -- 92
2017-09-14 04:00:00 19.6 4 Norte 9 Noroeste 0 -- -- 88
2017-09-14 03:00:00 21 5 Norte 9 Noroeste 0 -- -- 87
2017-09-14 02:00:00 21.6 5 Norte 18 Nordeste 0 -- -- 84
2017-09-14 01:00:00 22.1 15 Nordeste 20 Nordeste 0 -- -- 85
2017-09-14 00:00:00 22.5 5 Norte 19 Nordeste 0 -- -- 80
2017-09-13 23:00:00 23.5 13 Nordeste 21 Nordeste 0 -- -- 74
2017-09-13 22:00:00 24.8 9 Este 32 Este 0 -- -- 67
2017-09-13 21:00:00 25.5 11 Norte 35 Este 0 -- -- 63
2017-09-13 20:00:00 27.4 17 Nordeste 36 Este 0 -- -- 58
2017-09-13 19:00:00 29.3 24 Este 38 Este 0 -- -- 52
2017-09-13 18:00:00 30.7 24 Este 41 Este 0 -- -- 49
2017-09-13 17:00:00 31.4 28 Este 48 Sudeste 0 -- -- 47
2017-09-13 16:00:00 31.3 32 Este 49 Sudeste 0 -- -- 46
2017-09-13 15:00:00 31.4 23 Este 53 Este 0 -- -- 45
2017-09-13 14:00:00 30.7 28 Este 50 Sudeste 0 -- -- 45
2017-09-13 13:00:00 29.4 32 Este 51 Este 0 -- -- 56
2017-09-13 12:00:00 29 21 Este 49 Sudeste 0 -- -- 50
2017-09-13 11:00:00 27.7 25 Este 54 Este 0 -- -- 60
2017-09-13 10:00:00 26.1 15 Este 47 Nordeste 0 -- -- 68
2017-09-13 09:00:00 24.5 21 Nordeste 60 Sudeste 0 -- -- 72
2017-09-13 08:00:00 23.6 21 Nordeste 49 Nordeste 0 -- -- 75
2017-09-13 07:00:00 23.4 40 Este 50 Este 0 -- -- 76
2017-09-13 06:00:00 23.3 15 Nordeste 39 Este 0 -- -- 74
2017-09-13 05:00:00 23.6 17 Este 42 Este 0 -- -- 72
2017-09-13 04:00:00 24.4 24 Este 43 Este 0 -- -- 62
2017-09-13 03:00:00 24.5 14 Nordeste 37 Este 0 -- -- 50
2017-09-13 02:00:00 24.3 20 Este 25 Nordeste 0 -- -- 55
2017-09-13 01:00:00 23.5 8 Este 17 Nordeste 0 -- -- 61
2017-09-13 00:00:00 24.9 6 Noroeste 14 Norte 0 -- -- 60
2017-09-12 23:00:00 25.6 8 Nordeste 23 Nordeste 0 -- -- 51
2017-09-12 22:00:00 27.3 16 Nordeste 25 Norte 0 -- -- 44
2017-09-12 21:00:00 30 15 Norte 27 Noroeste 0 -- -- 36
2017-09-12 20:00:00 33.5 16 Norte 27 Noroeste 0 -- -- 29
2017-09-12 19:00:00 35.1 17 Noroeste 29 Noroeste 0 -- -- 30
2017-09-12 18:00:00 35.4 16 Noroeste 28 Noroeste 0 -- -- 34
2017-09-12 17:00:00 32 8 Oeste 19 Sur 0 -- -- 47
2017-09-12 16:00:00 27.3 12 Sudoeste 16 Sudoeste 0 -- -- 69
2017-09-12 15:00:00 26.8 12 Sudoeste 17 Sudoeste 0 -- -- 70
2017-09-12 14:00:00 26.2 14 Sudoeste 21 Sudoeste 0 -- -- 71
2017-09-12 13:00:00 25.9 11 Sudoeste 12 Sudoeste 0 -- -- 70
2017-09-12 12:00:00 25.7 11 Sudoeste 15 Oeste 0 -- -- 67
2017-09-12 11:00:00 25.8 4 Sudeste 15 Nordeste 0 -- -- 58
2017-09-12 10:00:00 21.5 10 Nordeste 18 Este 0 -- -- 61
2017-09-12 09:00:00 17.6 6 Nordeste 17 Norte 0 -- -- 78
2017-09-12 08:00:00 17.3 8 Norte 18 Nordeste 0 -- -- 79
2017-09-12 07:00:00 17.6 15 Nordeste 18 Nordeste 0 -- -- 77
2017-09-12 06:00:00 17.1 10 Nordeste 14 Nordeste 0 -- -- 77
2017-09-12 05:00:00 17.3 7 Norte 17 Norte 0 -- -- 80
2017-09-12 04:00:00 17.5 9 Norte 15 Norte 0 -- -- 78
2017-09-12 03:00:00 17.8 8 Nordeste 13 Norte 0 -- -- 76
2017-09-12 02:00:00 18.6 9 Norte 13 Norte 0 -- -- 71
2017-09-12 01:00:00 20.3 6 Norte 9 Norte 0 -- -- 60
2017-09-12 00:00:00 20.5 7 Norte 11 Norte 0 -- -- 59
2017-09-11 23:00:00 22.2 6 Norte 10 Norte 0 -- -- 54
2017-09-11 22:00:00 23.1 4 Norte 7 Norte 0 -- -- 58
2017-09-11 21:00:00 24.6 4 Oeste 13 Oeste 0 -- -- 61
2017-09-11 20:00:00 27.7 10 Oeste 17 Oeste 0 -- -- 49
2017-09-11 19:00:00 28.3 15 Oeste 21 Oeste 0 -- -- 51
2017-09-11 18:00:00 27.6 18 Oeste 27 Oeste 0 -- -- 61
2017-09-11 17:00:00 27 18 Oeste 24 Oeste 0 -- -- 69
2017-09-11 16:00:00 27 16 Oeste 21 Oeste 0 -- -- 69
2017-09-11 15:00:00 26.6 16 Sudoeste 19 Oeste 0 -- -- 73
2017-09-11 14:00:00 25.8 18 Oeste 24 Oeste 0 -- -- 71
2017-09-11 13:00:00 25 15 Sudoeste 18 Sudoeste 0 -- -- 66
2017-09-11 12:00:00 24.3 10 Oeste 12 Oeste 0 -- -- 66
2017-09-11 11:00:00 22.1 3 Norte 14 Norte 0 -- -- 64
2017-09-11 10:00:00 18.2 6 Norte 18 Norte 0 -- -- 81
2017-09-11 09:00:00 14.8 7 Norte 15 Norte 0 -- -- 93
2017-09-11 08:00:00 14.3 7 Norte 13 Norte 0 -- -- 91
2017-09-11 07:00:00 14.5 3 Norte 9 Nordeste 0 -- -- 91
2017-09-11 06:00:00 14.4 4 Nordeste 14 Norte 0 -- -- 90
2017-09-11 05:00:00 15.5 5 Norte 9 Norte 0 -- -- 84
2017-09-11 04:00:00 15.6 4 Nordeste 9 Norte 0 -- -- 86
2017-09-11 03:00:00 15.8 5 Norte 13 Norte 0 -- -- 83
2017-09-11 02:00:00 16.4 6 Norte 11 Norte 0 -- -- 83
2017-09-11 01:00:00 17.9 3 Norte 8 Norte 0 -- -- 74
2017-09-11 00:00:00 18.2 5 Norte 11 Norte 0 -- -- 74
2017-09-10 23:00:00 20.7 0 Calma 8 Sudoeste 0 -- -- 69
2017-09-10 22:00:00 20.9 6 Sudoeste 13 Oeste 0 -- -- 70
2017-09-10 21:00:00 21.7 8 Oeste 19 Oeste 0 -- -- 62
2017-09-10 20:00:00 24 13 Oeste 28 Oeste 0 -- -- 56
2017-09-10 19:00:00 24.1 19 Oeste 35 Noroeste 0 -- -- 56
2017-09-10 18:00:00 24.2 27 Oeste 40 Oeste 0 -- -- 62
2017-09-10 17:00:00 24.3 32 Oeste 39 Oeste 0 -- -- 66
2017-09-10 16:00:00 24 28 Oeste 38 Oeste 0 -- -- 64
2017-09-10 15:00:00 24.1 28 Oeste 34 Oeste 0 -- -- 63
2017-09-10 14:00:00 23.8 24 Oeste 29 Sudoeste 0 -- -- 61
2017-09-10 13:00:00 23.6 15 Sudoeste 20 Sudoeste 0 -- -- 60
2017-09-10 12:00:00 22.8 13 Sudoeste 16 Sudoeste 0 -- -- 62
2017-09-10 11:00:00 20.9 5 Nordeste 16 Norte 0 -- -- 60
2017-09-10 10:00:00 18.9 10 Nordeste 16 Nordeste 0 -- -- 66
2017-09-10 09:00:00 16.6 10 Nordeste 14 Nordeste 0 -- -- 76
2017-09-10 08:00:00 16.5 6 Nordeste 12 Nordeste 0 -- -- 77
2017-09-10 07:00:00 16.9 7 Este 15 Norte 0 -- -- 74
2017-09-10 06:00:00 17.9 5 Este 21 Noroeste 0 -- -- 69
2017-09-10 05:00:00 19.2 8 Norte 36 Noroeste 0 -- -- 63
2017-09-10 04:00:00 19.9 19 Norte 30 Noroeste 0 -- -- 61
2017-09-10 03:00:00 20.9 15 Norte 27 Norte 0 -- -- 61
2017-09-10 02:00:00 21.7 15 Noroeste 32 Noroeste 0 -- -- 58
2017-09-10 01:00:00 22.4 16 Noroeste 28 Noroeste 0 -- -- 60
2017-09-10 00:00:00 22.5 14 Oeste 32 Oeste 0 -- -- 80
2017-09-09 23:00:00 22.5 23 Oeste 33 Oeste 0 -- -- 84
2017-09-09 22:00:00 22.3 25 Oeste 39 Oeste 0 -- -- 87
2017-09-09 21:00:00 22.2 27 Oeste 36 Oeste 0 -- -- 86
2017-09-09 20:00:00 23.2 27 Oeste 35 Oeste 0 -- -- 81
2017-09-09 19:00:00 24 26 Oeste 35 Oeste 0 -- -- 77
2017-09-09 18:00:00 24.2 28 Oeste 37 Oeste 0 -- -- 73
2017-09-09 17:00:00 23.6 27 Oeste 38 Oeste 0 -- -- 75
2017-09-09 16:00:00 23.9 21 Oeste 36 Oeste 0 -- -- 72
2017-09-09 15:00:00 23.4 21 Oeste 39 Oeste 0 -- -- 74
2017-09-09 14:00:00 24.3 28 Oeste 36 Oeste 0 -- -- 74
2017-09-09 13:00:00 23.8 28 Oeste 35 Oeste 0 -- -- 75
2017-09-09 12:00:00 23.5 18 Oeste 27 Oeste 0 -- -- 74
2017-09-09 11:00:00 22.4 13 Noroeste 25 Noroeste 0 -- -- 77
2017-09-09 10:00:00 20.7 8 Noroeste 17 Norte 0 -- -- 80
2017-09-09 09:00:00 19.9 4 Noroeste 11 Oeste 0 -- -- 84
2017-09-09 08:00:00 20 5 Oeste 10 Oeste 0 -- -- 87
2017-09-09 07:00:00 20.4 4 Noroeste 11 Noroeste 0 -- -- 94
2017-09-09 06:00:00 21.7 9 Sudoeste 21 Sudoeste 0 -- -- 98
2017-09-09 05:00:00 21.6 16 Sudoeste 20 Sudoeste 0 -- -- 98
2017-09-09 04:00:00 22.2 14 Sudoeste 19 Sudoeste 0 -- -- 97
2017-09-09 03:00:00 22.8 11 Sudoeste 17 Sudoeste 0 -- -- 95
2017-09-09 02:00:00 20.8 3 Este 8 Norte 0 -- -- 89
2017-09-09 01:00:00 22.5 2 Nordeste 8 Este 0 -- -- 82
2017-09-09 00:00:00 22.8 4 Norte 9 Norte 0 -- -- 80
2017-09-08 23:00:00 23.8 2 Este 11 Noroeste 0 -- -- 78
2017-09-08 22:00:00 25 10 Noroeste 17 Noroeste 0 -- -- 75
2017-09-08 21:00:00 26.2 2 Oeste 11 Oeste 0 -- -- 73
2017-09-08 20:00:00 28.3 10 Oeste 21 Oeste 0 -- -- 68
2017-09-08 19:00:00 28 13 Sudoeste 17 Sudoeste 0 -- -- 74
2017-09-08 18:00:00 29.3 12 Oeste 19 Sudoeste 0 -- -- 69
2017-09-08 17:00:00 27.7 14 Sur 22 Sur 0 -- -- 74
2017-09-08 16:00:00 28.3 17 Sur 21 Sur 0 -- -- 72
2017-09-08 15:00:00 29 14 Sur 22 Sur 0 -- -- 70
2017-09-08 14:00:00 28.9 15 Sur 22 Sur 0 -- -- 67
2017-09-08 13:00:00 28.4 15 Sur 21 Sur 0 -- -- 71
2017-09-08 12:00:00 28.7 9 Sudoeste 14 Sur 0 -- -- 68
2017-09-08 11:00:00 26.9 7 Sudoeste 14 Sur 0 -- -- 71
2017-09-08 10:00:00 26 7 Este 17 Nordeste 0 -- -- 65
2017-09-08 09:00:00 22.8 10 Nordeste 17 Nordeste 0 -- -- 82
2017-09-08 08:00:00 21.7 12 Nordeste 17 Nordeste 0 -- -- 85
2017-09-08 07:00:00 22 10 Nordeste 14 Norte 0 -- -- 85
2017-09-08 06:00:00 21.8 8 Norte 12 Noroeste 0 -- -- 82
2017-09-08 05:00:00 22.3 6 Norte 10 Norte 0 -- -- 80
2017-09-08 04:00:00 22.5 5 Norte 9 Norte 0 -- -- 82
2017-09-08 03:00:00 22.7 6 Norte 11 Norte 0 -- -- 82
2017-09-08 02:00:00 22.7 7 Norte 10 Norte 0 -- -- 78
2017-09-08 01:00:00 23.3 4 Norte 11 Nordeste 0 -- -- 74
2017-09-08 00:00:00 24 5 Norte 12 Oeste 0 -- -- 72
2017-09-07 23:00:00 24.7 9 Oeste 13 Sudoeste 0 -- -- 71
2017-09-07 22:00:00 25.7 6 Nordeste 22 Este 0 -- -- 58
2017-09-07 21:00:00 27.2 8 Nordeste 22 Este 0 -- -- 53
2017-09-07 20:00:00 28.9 19 Este 36 Este 0 -- -- 50
2017-09-07 19:00:00 31 23 Este 35 Este 0 -- -- 48
2017-09-07 18:00:00 33.1 15 Este 30 Este 0 -- -- 46
2017-09-07 17:00:00 33.4 18 Este 32 Este 0 -- -- 41
2017-09-07 16:00:00 32.6 20 Este 30 Nordeste 0 -- -- 46
2017-09-07 15:00:00 28.6 21 Sur 31 Sur 0 -- -- 69
2017-09-07 14:00:00 29 17 Sur 34 Sur 0 -- -- 67
2017-09-07 13:00:00 31.2 14 Este 32 Este 0 -- -- 44
2017-09-07 12:00:00 31.1 14 Sudeste 24 Sudeste 0 -- -- 51
2017-09-07 11:00:00 29.1 4 Sudoeste 29 Sudeste 0 -- -- 55
2017-09-07 10:00:00 27.3 12 Nordeste 31 Este 0 -- -- 58
2017-09-07 09:00:00 25.8 10 Nordeste 26 Este 0 -- -- 56
2017-09-07 08:00:00 24.8 12 Este 33 Este 0 -- -- 62
2017-09-07 07:00:00 25.2 21 Este 42 Este 0 -- -- 58
2017-09-07 06:00:00 24.8 5 Norte 27 Este 0 -- -- 61
2017-09-07 05:00:00 25.1 12 Nordeste 27 Norte 0 -- -- 61
2017-09-07 04:00:00 24.1 16 Norte 25 Norte 0 -- -- 72
2017-09-07 03:00:00 24 13 Nordeste 23 Nordeste 0 -- -- 73
2017-09-07 02:00:00 24 10 Noroeste 43 Nordeste 0 -- -- 71
2017-09-07 01:00:00 25.5 12 Nordeste 26 Nordeste 0 -- -- 60
2017-09-07 00:00:00 25.8 4 Sur 21 Norte 0 -- -- 52
2017-09-06 23:00:00 25.5 10 Norte 27 Este 0 -- -- 56
2017-09-06 22:00:00 25.5 7 Norte 28 Este 0 -- -- 66
2017-09-06 21:00:00 27.1 19 Este 36 Nordeste 0 -- -- 57
2017-09-06 20:00:00 30.7 6 Este 30 Sudeste 0 -- -- 46
2017-09-06 19:00:00 32.2 18 Sudeste 27 Sudeste 0 -- -- 40
2017-09-06 18:00:00 32.5 15 Sudeste 26 Este 0 -- -- 49
2017-09-06 17:00:00 34.6 19 Este 30 Este 0 -- -- 37
2017-09-06 16:00:00 34.7 15 Este 33 Este 0 -- -- 33
2017-09-06 15:00:00 33.7 19 Este 32 Este 0 -- -- 37
2017-09-06 14:00:00 30.3 6 Sudeste 18 Sur 0 -- -- 57
2017-09-06 13:00:00 29 10 Sudoeste 15 Sur 0 -- -- 70
2017-09-06 12:00:00 27.9 10 Sudoeste 14 Sur 0 -- -- 73
2017-09-06 11:00:00 27.8 7 Sudoeste 29 Este 0 -- -- 72
2017-09-06 10:00:00 25.7 24 Nordeste 34 Nordeste 0 -- -- 77
2017-09-06 09:00:00 23.8 23 Nordeste 29 Nordeste 0 -- -- 86
2017-09-06 08:00:00 22.9 20 Nordeste 27 Nordeste 0 -- -- 88
2017-09-06 07:00:00 22.9 10 Norte 20 Nordeste 0 -- -- 88
2017-09-06 06:00:00 23 10 Norte 29 Nordeste 0 -- -- 87
2017-09-06 05:00:00 23.1 17 Nordeste 30 Nordeste 0 -- -- 85
2017-09-06 04:00:00 23 26 Nordeste 32 Nordeste 0 -- -- 87
2017-09-06 03:00:00 23.9 14 Nordeste 32 Nordeste 0 -- -- 75
2017-09-06 02:00:00 24.8 11 Nordeste 26 Este 0 -- -- 70
2017-09-06 01:00:00 24.3 8 Noroeste 23 Este 0 -- -- 76
2017-09-06 00:00:00 24.9 9 Norte 36 Sur 0 -- -- 72
2017-09-05 23:00:00 25.2 21 Sudeste 39 Este 0 -- -- 72
2017-09-05 22:00:00 25.2 18 Este 28 Este 0 -- -- 75
2017-09-05 21:00:00 26 20 Nordeste 26 Nordeste 0 -- -- 71
2017-09-05 20:00:00 26.3 15 Oeste 24 Sudoeste 0 -- -- 81
2017-09-05 19:00:00 28.4 19 Oeste 27 Oeste 0 -- -- 75
2017-09-05 18:00:00 30.2 18 Sudoeste 40 Este 0 -- -- 66
2017-09-05 17:00:00 31.7 19 Este 33 Este 0 -- -- 55
2017-09-05 16:00:00 31.1 23 Este 41 Este 0 -- -- 59
2017-09-05 15:00:00 28.1 14 Oeste 28 Oeste 0 -- -- 74
2017-09-05 14:00:00 26.5 16 Oeste 24 Oeste 0 -- -- 81
2017-09-05 13:00:00 25.2 20 Oeste 24 Oeste 0 -- -- 86
2017-09-05 12:00:00 25 15 Oeste 18 Sudoeste 0 -- -- 87
2017-09-05 11:00:00 23.4 16 Sudoeste 20 Sudoeste 0 -- -- 94
2017-09-05 10:00:00 22.3 18 Sudoeste 27 Sudoeste 0 -- -- 99
2017-09-05 09:00:00 21.3 16 Sudoeste 20 Sur 0 -- -- 100
2017-09-05 08:00:00 21.4 14 Sur 19 Sur 0 -- -- 99
2017-09-05 07:00:00 22 15 Sur 19 Sudeste 0 -- -- 98
2017-09-05 06:00:00 22.2 15 Sur 24 Sudoeste 0 -- -- 98
2017-09-05 05:00:00 22.2 20 Sudoeste 24 Sudoeste 0 -- -- 98
2017-09-05 04:00:00 22.5 18 Sudoeste 21 Sudoeste 0 -- -- 97
2017-09-05 03:00:00 22.9 14 Sur 17 Sur 0 -- -- 96
2017-09-05 02:00:00 23 11 Sudoeste 13 Sudoeste 0 -- -- 95
2017-09-05 01:00:00 23 4 Sur 9 Sur 0 -- -- 92
2017-09-05 00:00:00 23.3 6 Sur 13 Sur 0 -- -- 90
2017-09-04 23:00:00 23.5 3 Oeste 12 Sudoeste 0 -- -- 85
2017-09-04 22:00:00 24.1 10 Sur 13 Sur 0 -- -- 84
2017-09-04 21:00:00 24.6 6 Sudeste 20 Oeste 0 -- -- 74
2017-09-04 20:00:00 26 10 Noroeste 29 Oeste 0 -- -- 75
2017-09-04 19:00:00 26.4 19 Oeste 29 Oeste 0 -- -- 77
2017-09-04 18:00:00 26.2 19 Sudoeste 33 Sudoeste 0 -- -- 77
2017-09-04 17:00:00 26.4 26 Oeste 31 Oeste 0 -- -- 74
2017-09-04 16:00:00 26.7 19 Oeste 26 Oeste 0 -- -- 71
2017-09-04 15:00:00 25.9 19 Sudoeste 23 Sudoeste 0 -- -- 74
2017-09-04 14:00:00 25.7 17 Sudoeste 31 Sudoeste 0 -- -- 80
2017-09-04 13:00:00 24.5 25 Sudoeste 32 Sudoeste 0 -- -- 86
2017-09-04 12:00:00 23.8 28 Sudoeste 33 Sudoeste 0 -- -- 89
2017-09-04 11:00:00 23 26 Sudoeste 31 Sudoeste 0 -- -- 93
2017-09-04 10:00:00 22.3 24 Sudoeste 28 Sudoeste 0 -- -- 96
2017-09-04 09:00:00 21.7 24 Sudoeste 28 Sudoeste 0 -- -- 98
2017-09-04 08:00:00 21.7 23 Sudoeste 26 Sudoeste 0 -- -- 98
2017-09-04 07:00:00 21.9 19 Sudoeste 22 Sudoeste 0 -- -- 98
2017-09-04 06:00:00 22 17 Sudoeste 23 Sudoeste 0 -- -- 98
2017-09-04 05:00:00 22.6 16 Sudoeste 19 Sudoeste 0 -- -- 97
2017-09-04 04:00:00 23.1 13 Sudoeste 17 Sudoeste 0 -- -- 95
2017-09-04 03:00:00 22.7 2 Oeste 6 Oeste 0 -- -- 90
2017-09-04 02:00:00 23.4 2 Oeste 5 Norte 0 -- -- 89
2017-09-04 01:00:00 23.4 4 Nordeste 6 Nordeste 0 -- -- 88
2017-09-04 00:00:00 24.1 3 Nordeste 6 Nordeste 0 -- -- 83
2017-09-03 23:00:00 24.6 2 Nordeste 8 Nordeste 0 -- -- 78
2017-09-03 22:00:00 24.8 3 Oeste 13 Oeste 0 -- -- 78
2017-09-03 21:00:00 25.9 4 Noroeste 15 Oeste 0 -- -- 75
2017-09-03 20:00:00 26.5 15 Oeste 29 Oeste 0 -- -- 79
2017-09-03 19:00:00 28 10 Sudoeste 23 Sur 0 -- -- 75
2017-09-03 18:00:00 27.4 18 Sur 27 Sur 0 -- -- 77
2017-09-03 17:00:00 27.1 23 Sur 32 Sur 0 -- -- 78
2017-09-03 16:00:00 27.2 27 Sur 35 Sur 0 -- -- 77
2017-09-03 15:00:00 27.4 30 Sur 37 Sur 0 -- -- 75
2017-09-03 14:00:00 27.9 26 Sur 40 Sur 0 -- -- 72
2017-09-03 13:00:00 28.7 21 Sur 28 Sur 0 -- -- 68
2017-09-03 12:00:00 29.6 12 Sudeste 34 Sudeste 0 -- -- 58
2017-09-03 11:00:00 28.4 10 Sur 35 Este 0 -- -- 62
2017-09-03 10:00:00 26.7 16 Este 37 Este 0 -- -- 64
2017-09-03 09:00:00 24.4 8 Nordeste 21 Norte 0 -- -- 72
2017-09-03 08:00:00 23.6 11 Nordeste 28 Este 0 -- -- 74
2017-09-03 07:00:00 23.8 10 Este 42 Este 0 -- -- 72
2017-09-03 06:00:00 23.8 10 Nordeste 32 Nordeste 0 -- -- 75
2017-09-03 05:00:00 23.9 14 Norte 30 Nordeste 0 -- -- 76
2017-09-03 04:00:00 24 7 Nordeste 21 Nordeste 0 -- -- 75
2017-09-03 03:00:00 24.2 11 Norte 23 Noroeste 0 -- -- 74
2017-09-03 02:00:00 24.4 13 Noroeste 30 Norte 0 -- -- 75
2017-09-03 01:00:00 24.5 10 Nordeste 36 Este 0 -- -- 76
2017-09-03 00:00:00 24.7 21 Este 44 Sudeste 0 -- -- 76
2017-09-02 23:00:00 24.9 19 Este 48 Este 0 -- -- 76
2017-09-02 22:00:00 25.1 25 Este 52 Sudeste 0 -- -- 76
2017-09-02 21:00:00 25.8 21 Este 47 Este 0 -- -- 73
2017-09-02 20:00:00 27.5 26 Este 48 Este 0 -- -- 66
2017-09-02 19:00:00 28.9 32 Este 57 Este 0 -- -- 59
2017-09-02 18:00:00 29.8 40 Este 62 Este 0 -- -- 56
2017-09-02 17:00:00 30.1 36 Este 57 Este 0 -- -- 58
2017-09-02 16:00:00 30.6 37 Este 63 Este 0 -- -- 57
2017-09-02 15:00:00 30.5 38 Este 58 Sudeste 0 -- -- 58
2017-09-02 14:00:00 29.9 41 Este 60 Sudeste 0 -- -- 58
2017-09-02 13:00:00 29.2 39 Este 59 Este 0 -- -- 65
2017-09-02 12:00:00 29 34 Sudeste 52 Sudeste 0 -- -- 70
2017-09-02 11:00:00 28.4 28 Sudeste 48 Sudeste 0 -- -- 71
2017-09-02 10:00:00 27.4 24 Este 42 Este 0 -- -- 75
2017-09-02 09:00:00 25.7 13 Este 30 Este 0 -- -- 82
2017-09-02 08:00:00 25.2 11 Nordeste 23 Este 0 -- -- 83
2017-09-02 07:00:00 25.2 6 Nordeste 18 Nordeste 0 -- -- 84
2017-09-02 06:00:00 25.3 9 Nordeste 21 Este 0 -- -- 83
2017-09-02 05:00:00 25.1 8 Nordeste 23 Este 0 -- -- 84
2017-09-02 04:00:00 25.1 11 Nordeste 27 Este 0 -- -- 82
2017-09-02 03:00:00 25 13 Nordeste 26 Nordeste 0 -- -- 83
2017-09-02 02:00:00 25 21 Nordeste 39 Nordeste 0 -- -- 83
2017-09-02 01:00:00 25.1 10 Nordeste 22 Nordeste 0 -- -- 82
2017-09-02 00:00:00 25.1 11 Este 30 Este 0 -- -- 81
2017-09-01 23:00:00 25.4 20 Este 35 Este 0 -- -- 79
2017-09-01 22:00:00 25.7 14 Este 27 Este 0 -- -- 78
2017-09-01 21:00:00 26.4 17 Este 33 Este 0 -- -- 72
2017-09-01 20:00:00 28.1 22 Este 38 Este 0 -- -- 66
2017-09-01 19:00:00 29.2 25 Este 43 Este 0 -- -- 63
2017-09-01 18:00:00 29.9 28 Este 46 Este 0 -- -- 60
2017-09-01 17:00:00 30.7 28 Este 54 Este 0 -- -- 58
2017-09-01 16:00:00 30.8 30 Este 46 Este 0 -- -- 57
2017-09-01 15:00:00 30.7 27 Este 44 Este 0 -- -- 55
2017-09-01 14:00:00 30.6 23 Sudeste 36 Sudeste 0 -- -- 58
2017-09-01 13:00:00 29.7 24 Este 42 Sudeste 0 -- -- 62
2017-09-01 12:00:00 29.2 25 Este 41 Sudeste 0 -- -- 64
2017-09-01 11:00:00 28.8 10 Este 29 Sudeste 0 -- -- 66
2017-09-01 10:00:00 26.8 9 Este 25 Este 0 -- -- 73
2017-09-01 09:00:00 24.7 15 Nordeste 30 Nordeste 0 -- -- 82
2017-09-01 08:00:00 24 18 Nordeste 34 Nordeste 0 -- -- 83
2017-09-01 07:00:00 23.9 20 Nordeste 29 Este 0 -- -- 81
2017-09-01 06:00:00 23.9 18 Este 24 Este 0 -- -- 80
2017-09-01 05:00:00 24 10 Nordeste 20 Nordeste 0 -- -- 80
2017-09-01 04:00:00 23.9 12 Nordeste 26 Este 0 -- -- 80
2017-09-01 03:00:00 24.3 8 Nordeste 17 Nordeste 0 -- -- 78
2017-09-01 02:00:00 23.6 10 Este 22 Nordeste 0 -- -- 79
2017-09-01 01:00:00 24.4 13 Este 21 Este 0 -- -- 74
2017-09-01 00:00:00 24.6 13 Este 19 Este 0 -- -- 71
2017-08-31 23:00:00 25.3 10 Sudeste 24 Sudeste 0 -- -- 67
2017-08-31 22:00:00 25.1 9 Nordeste 26 Este 0 -- -- 70
2017-08-31 21:00:00 27.2 12 Este 27 Este 0 -- -- 60
2017-08-31 20:00:00 29.6 15 Este 35 Este 0 -- -- 56
2017-08-31 19:00:00 30.9 23 Este 35 Este 0 -- -- 51
2017-08-31 18:00:00 31.7 20 Este 36 Este 0 -- -- 47
2017-08-31 17:00:00 32.6 19 Este 35 Este 0 -- -- 45
2017-08-31 16:00:00 32.2 18 Este 35 Este 0 -- -- 45
2017-08-31 15:00:00 30.1 14 Sudoeste 22 Sudoeste 0 -- -- 60
2017-08-31 14:00:00 29.7 10 Sudoeste 19 Sudoeste 0 -- -- 62
2017-08-31 13:00:00 28.2 10 Oeste 18 Sudoeste 0 -- -- 67
2017-08-31 12:00:00 27.2 14 Sudoeste 25 Sudoeste 0 -- -- 66
2017-08-31 11:00:00 25.5 12 Nordeste 17 Nordeste 0 -- -- 69
2017-08-31 10:00:00 22.2 8 Norte 17 Nordeste 0 -- -- 83
2017-08-31 09:00:00 19.4 9 Norte 15 Norte 0 -- -- 94
2017-08-31 08:00:00 18.6 7 Norte 12 Norte 0 -- -- 96
2017-08-31 07:00:00 18.4 7 Norte 11 Norte 0 -- -- 97
2017-08-31 06:00:00 18.8 7 Norte 16 Nordeste 0 -- -- 96
2017-08-31 05:00:00 18.9 11 Nordeste 16 Nordeste 0 -- -- 95
2017-08-31 04:00:00 19.4 12 Nordeste 17 Nordeste 0 -- -- 94
2017-08-31 03:00:00 19.8 12 Norte 18 Norte 0 -- -- 92
2017-08-31 02:00:00 20.2 6 Norte 14 Nordeste 0 -- -- 90
2017-08-31 01:00:00 20.7 8 Norte 14 Norte 0 -- -- 89
2017-08-31 00:00:00 21.4 6 Norte 23 Este 0 -- -- 88
2017-08-30 23:00:00 22.4 11 Este 25 Este 0 -- -- 82
2017-08-30 22:00:00 23 6 Nordeste 24 Este 0 -- -- 82
2017-08-30 21:00:00 23.9 18 Este 28 Este 0 -- -- 78
2017-08-30 20:00:00 26.1 15 Este 24 Este 0 -- -- 65
2017-08-30 19:00:00 27.7 14 Oeste 22 Sudoeste 0 -- -- 68
2017-08-30 18:00:00 27.7 14 Oeste 21 Sudoeste 0 -- -- 69
2017-08-30 17:00:00 27.8 17 Sudoeste 23 Oeste 0 -- -- 66
2017-08-30 16:00:00 27.7 19 Sudoeste 27 Oeste 0 -- -- 70
2017-08-30 15:00:00 27.7 21 Oeste 26 Oeste 0 -- -- 68
2017-08-30 14:00:00 27.5 19 Oeste 23 Oeste 0 -- -- 68
2017-08-30 13:00:00 27.4 13 Oeste 16 Oeste 0 -- -- 69
2017-08-30 12:00:00 25.9 13 Oeste 16 Oeste 0 -- -- 71
2017-08-30 11:00:00 24 3 Nordeste 10 Norte 0 -- -- 78
2017-08-30 10:00:00 21.4 6 Norte 12 Norte 0 -- -- 91
2017-08-30 09:00:00 19.5 4 Norte 11 Norte 0 -- -- 97
2017-08-30 08:00:00 18.7 6 Norte 9 Norte 0 -- -- 98
2017-08-30 07:00:00 18.8 5 Norte 8 Nordeste 0 -- -- 97
2017-08-30 06:00:00 19.1 4 Norte 8 Norte 0 -- -- 95
2017-08-30 05:00:00 19.4 4 Norte 9 Nordeste 0 -- -- 95
2017-08-30 04:00:00 19.4 5 Norte 9 Norte 0 -- -- 95
2017-08-30 03:00:00 19.5 4 Norte 8 Norte 0 -- -- 93
2017-08-30 02:00:00 19.5 3 Norte 8 Nordeste 0 -- -- 91
2017-08-30 01:00:00 20.5 3 Norte 8 Oeste 0 -- -- 91
2017-08-30 00:00:00 20.8 5 Oeste 8 Sudoeste 0 -- -- 88
2017-08-29 23:00:00 20.7 2 Sur 6 Oeste 0 -- -- 86
2017-08-29 22:00:00 21.1 4 Noroeste 12 Oeste 0 -- -- 84
2017-08-29 21:00:00 22.1 9 Noroeste 18 Noroeste 0 -- -- 79
2017-08-29 20:00:00 24.4 10 Noroeste 23 Oeste 0 -- -- 70
2017-08-29 19:00:00 25.9 18 Oeste 23 Oeste 0 -- -- 74
2017-08-29 18:00:00 26.1 18 Oeste 24 Sudoeste 0 -- -- 74
2017-08-29 17:00:00 25.5 21 Sudoeste 27 Sudoeste 0 -- -- 77
2017-08-29 16:00:00 24.8 23 Sudoeste 30 Sudoeste 0 -- -- 80
2017-08-29 15:00:00 24.3 26 Sudoeste 32 Sudoeste 0 -- -- 82
2017-08-29 14:00:00 23.5 27 Sudoeste 37 Sudoeste 0 -- -- 84
2017-08-29 13:00:00 22 28 Sudoeste 34 Sudoeste 0.4 -- -- 91
2017-08-29 12:00:00 22.4 29 Sudoeste 36 Sudoeste 0 -- -- 90
2017-08-29 11:00:00 21 24 Sudoeste 36 Sudoeste 0 -- -- 98
2017-08-29 10:00:00 20.9 22 Sur 36 Sur 11.4 -- -- 100
2017-08-29 09:00:00 20.1 18 Sudoeste 35 Sur 8.8 -- -- 96
2017-08-29 08:00:00 21.1 28 Sur 34 Sur 0 -- -- 91
2017-08-29 07:00:00 21.4 24 Sur 29 Sur 0 -- -- 90
2017-08-29 06:00:00 21.3 24 Sur 27 Sudoeste 0 -- -- 90
2017-08-29 05:00:00 21.4 18 Sudoeste 24 Sudoeste 0 -- -- 89
2017-08-29 04:00:00 19.9 2 Norte 6 Nordeste 0 -- -- 87
2017-08-29 03:00:00 20.6 4 Oeste 7 Oeste 0 -- -- 83
2017-08-29 02:00:00 20.6 4 Oeste 8 Oeste 0 -- -- 84
2017-08-29 01:00:00 21 5 Noroeste 13 Oeste 0 -- -- 81
2017-08-29 00:00:00 21.4 8 Noroeste 17 Noroeste 0 -- -- 82
2017-08-28 23:00:00 21.6 8 Oeste 12 Oeste 0 -- -- 84
2017-08-28 22:00:00 22.1 9 Oeste 22 Noroeste 0 -- -- 85
2017-08-28 21:00:00 22.9 13 Oeste 24 Oeste 0 -- -- 85
2017-08-28 20:00:00 25.8 19 Oeste 28 Oeste 0 -- -- 73
2017-08-28 19:00:00 26.9 19 Oeste 26 Sudoeste 0 -- -- 70
2017-08-28 18:00:00 27.5 18 Oeste 26 Sudoeste 0 -- -- 67
2017-08-28 17:00:00 28 19 Oeste 27 Oeste 0 -- -- 64
2017-08-28 16:00:00 27.9 19 Sudoeste 23 Oeste 0 -- -- 66
2017-08-28 15:00:00 27.4 18 Sudoeste 23 Sudoeste 0 -- -- 65
2017-08-28 14:00:00 26.8 20 Sudoeste 28 Sudoeste 0 -- -- 67
2017-08-28 13:00:00 26.6 17 Sudoeste 22 Oeste 0 -- -- 69
2017-08-28 12:00:00 25.4 12 Sudoeste 15 Sudoeste 0 -- -- 75
2017-08-28 11:00:00 24.4 9 Sudoeste 12 Sudoeste 0 -- -- 77
2017-08-28 10:00:00 23.7 4 Sudoeste 5 Sudoeste 0 -- -- 79
2017-08-28 09:00:00 20.8 0 Calma 2 Este 0 -- -- 89
2017-08-28 08:00:00 20 4 Nordeste 6 Nordeste 0 -- -- 90
2017-08-28 07:00:00 20.4 5 Nordeste 8 Este 0 -- -- 87
2017-08-28 06:00:00 20.6 3 Norte 13 Noroeste 0 -- -- 85
2017-08-28 05:00:00 20.8 0 Calma 10 Noroeste 0 -- -- 85
2017-08-28 04:00:00 21.4 8 Noroeste 14 Noroeste 0 -- -- 82
2017-08-28 03:00:00 22 4 Oeste 10 Oeste 0 -- -- 81
2017-08-28 02:00:00 22.9 5 Oeste 8 Oeste 0 -- -- 81
2017-08-28 01:00:00 23 3 Oeste 11 Noroeste 0 -- -- 78
2017-08-28 00:00:00 23.2 4 Noroeste 12 Noroeste 0 -- -- 79
2017-08-27 23:00:00 23.3 5 Noroeste 10 Sudeste 0 -- -- 79
2017-08-27 22:00:00 23.6 9 Oeste 19 Noroeste 0 -- -- 80
2017-08-27 21:00:00 24 13 Noroeste 19 Noroeste 0 -- -- 81
2017-08-27 20:00:00 26.2 10 Noroeste 17 Oeste 0 -- -- 75
2017-08-27 19:00:00 28.1 13 Oeste 27 Oeste 0 -- -- 71
2017-08-27 18:00:00 27.5 22 Oeste 34 Oeste 0 -- -- 73
2017-08-27 17:00:00 28.4 25 Oeste 33 Oeste 0 -- -- 71
2017-08-27 16:00:00 28.1 23 Oeste 37 Oeste 0 -- -- 74
2017-08-27 15:00:00 28.1 28 Oeste 35 Oeste 0 -- -- 76
2017-08-27 14:00:00 28.9 15 Oeste 38 Este 0 -- -- 75
2017-08-27 13:00:00 27.5 11 Sur 32 Sudeste 0 -- -- 79
2017-08-27 12:00:00 26.8 11 Sudoeste 42 Sudeste 0.4 -- -- 82
2017-08-27 11:00:00 27.3 27 Este 42 Este 0.6 -- -- 82
2017-08-27 10:00:00 25.4 11 Sudoeste 21 Nordeste 0 -- -- 83
2017-08-27 09:00:00 25.1 0 Calma 17 Norte 0 -- -- 85
2017-08-27 08:00:00 24.2 5 Norte 9 Oeste 0 -- -- 88
2017-08-27 07:00:00 24.1 6 Sudoeste 18 Sur 0 -- -- 86
2017-08-27 06:00:00 26.1 15 Este 29 Este 0 -- -- 75
2017-08-27 05:00:00 26.6 15 Este 35 Este 0 -- -- 73
2017-08-27 04:00:00 27.1 12 Este 17 Este 0 -- -- 69
2017-08-27 03:00:00 27.4 16 Sudeste 41 Sudeste 0 -- -- 63
2017-08-27 02:00:00 24.8 32 Sur 44 Sur 0 -- -- 85
2017-08-27 01:00:00 27 10 Norte 55 Este 0 -- -- 71
2017-08-27 00:00:00 27.3 33 Sudeste 59 Este 0 -- -- 65
2017-08-26 23:00:00 28.7 12 Sur 44 Este 0 -- -- 52
2017-08-26 22:00:00 29.1 20 Este 53 Este 0 -- -- 50
2017-08-26 21:00:00 29.7 29 Este 51 Este 0 -- -- 47
2017-08-26 20:00:00 27 5 Oeste 40 Este 0 -- -- 70
2017-08-26 19:00:00 31.5 16 Este 37 Este 0 -- -- 44
2017-08-26 18:00:00 29.8 9 Sur 19 Sur 0 -- -- 58
2017-08-26 17:00:00 29.8 17 Sur 29 Este 0 -- -- 64
2017-08-26 16:00:00 35 18 Este 36 Este 0 -- -- 42
2017-08-26 15:00:00 36.4 21 Este 36 Este 0 -- -- 38
2017-08-26 14:00:00 34.3 21 Este 35 Este 0 -- -- 45
2017-08-26 13:00:00 30 10 Oeste 19 Oeste 0 -- -- 65
2017-08-26 12:00:00 29.3 17 Sudoeste 22 Oeste 0 -- -- 68
2017-08-26 11:00:00 27.4 18 Oeste 30 Oeste 0 -- -- 74
2017-08-26 10:00:00 25.4 16 Oeste 24 Oeste 0 -- -- 77
2017-08-26 09:00:00 25.9 9 Oeste 24 Sudeste 0 -- -- 75
2017-08-26 08:00:00 23.9 10 Oeste 15 Oeste 0 -- -- 83
2017-08-26 07:00:00 24.8 6 Nordeste 24 Este 0 -- -- 77
2017-08-26 06:00:00 24.2 11 Nordeste 22 Este 0 -- -- 78
2017-08-26 05:00:00 24.6 4 Nordeste 26 Sur 0 -- -- 74
2017-08-26 04:00:00 26.4 15 Oeste 30 Este 0 -- -- 66
2017-08-26 03:00:00 26.1 4 Nordeste 23 Este 0 -- -- 61
2017-08-26 02:00:00 25.4 5 Norte 14 Noroeste 0 -- -- 60
2017-08-26 01:00:00 25.4 6 Norte 11 Norte 0 -- -- 64
2017-08-26 00:00:00 26.3 12 Este 18 Noroeste 0 -- -- 58